createdAt,value
2023-05-05T00:00:26.890Z,992.65
2023-05-05T00:01:26.860Z,992.63
2023-05-05T00:02:26.937Z,992.66
2023-05-05T00:03:26.961Z,992.66
2023-05-05T00:04:26.817Z,992.62
2023-05-05T00:05:26.809Z,992.59
2023-05-05T00:06:26.785Z,992.62
2023-05-05T00:07:26.809Z,992.60
2023-05-05T00:08:26.809Z,992.59
2023-05-05T00:09:26.766Z,992.57
2023-05-05T00:10:26.735Z,992.53
2023-05-05T00:11:26.734Z,992.54
2023-05-05T00:12:26.747Z,992.56
2023-05-05T00:13:26.699Z,992.49
2023-05-05T00:14:26.689Z,992.54
2023-05-05T00:15:26.678Z,992.51
2023-05-05T00:16:26.711Z,992.55
2023-05-05T00:17:26.743Z,992.52
2023-05-05T00:18:26.684Z,992.55
2023-05-05T00:19:26.630Z,992.50
2023-05-05T00:20:26.605Z,992.52
2023-05-05T00:21:26.640Z,992.48
2023-05-05T00:22:26.611Z,992.52
2023-05-05T00:23:26.628Z,992.54
2023-05-05T00:24:26.588Z,992.51
2023-05-05T00:25:26.576Z,992.44
2023-05-05T00:26:26.583Z,992.48
2023-05-05T00:27:26.518Z,992.45
2023-05-05T00:28:26.513Z,992.45
2023-05-05T00:29:26.494Z,992.43
2023-05-05T00:30:26.508Z,992.51
2023-05-05T00:31:26.599Z,992.51
2023-05-05T00:32:26.471Z,992.45
2023-05-05T00:33:26.446Z,992.46
2023-05-05T00:34:26.433Z,992.42
2023-05-05T00:35:26.454Z,992.41
2023-05-05T00:36:26.436Z,992.42
2023-05-05T00:37:26.388Z,992.37
2023-05-05T00:38:26.404Z,992.42
2023-05-05T00:39:26.377Z,992.39
2023-05-05T00:40:26.390Z,992.40
2023-05-05T00:41:26.343Z,992.45
2023-05-05T00:42:26.406Z,992.42
2023-05-05T00:43:26.319Z,992.39
2023-05-05T00:44:26.363Z,992.40
2023-05-05T00:45:26.319Z,992.40
2023-05-05T00:46:26.332Z,992.35
2023-05-05T00:47:26.354Z,992.38
2023-05-05T00:48:26.272Z,992.36
2023-05-05T00:49:26.293Z,992.29
2023-05-05T00:50:26.244Z,992.31
2023-05-05T00:51:26.211Z,992.25
2023-05-05T00:52:26.416Z,992.23
2023-05-05T00:53:26.184Z,992.22
2023-05-05T00:54:26.211Z,992.22
2023-05-05T00:55:26.176Z,992.18
2023-05-05T00:56:26.169Z,992.26
2023-05-05T00:57:26.138Z,992.27
2023-05-05T00:58:26.155Z,992.26
2023-05-05T00:59:26.140Z,992.25
2023-05-05T01:00:26.110Z,992.21
2023-05-05T01:01:26.102Z,992.22
2023-05-05T01:02:26.134Z,992.18
2023-05-05T01:03:26.154Z,992.12
2023-05-05T01:04:26.041Z,992.17
2023-05-05T01:05:26.026Z,992.11
2023-05-05T01:06:26.021Z,992.11
2023-05-05T01:07:26.017Z,992.13
2023-05-05T01:08:26.021Z,992.14
2023-05-05T01:09:25.994Z,992.10
2023-05-05T01:10:26.289Z,992.07
2023-05-05T01:11:25.975Z,992.05
2023-05-05T01:12:25.978Z,992.07
2023-05-05T01:13:26.046Z,992.12
2023-05-05T01:14:25.917Z,992.07
2023-05-05T01:15:25.936Z,992.09
2023-05-05T01:16:25.929Z,992.06
2023-05-05T01:17:25.948Z,992.02
2023-05-05T01:18:25.877Z,992.04
2023-05-05T01:19:25.855Z,992.03
2023-05-05T01:20:25.851Z,992.02
2023-05-05T01:21:25.828Z,991.97
2023-05-05T01:22:25.855Z,992.03
2023-05-05T01:23:25.849Z,992.01
2023-05-05T01:24:25.823Z,992.01
2023-05-05T01:25:25.832Z,992.03
2023-05-05T01:26:25.778Z,992.01
2023-05-05T01:27:25.764Z,992.01
2023-05-05T01:28:25.761Z,992.04
2023-05-05T01:29:25.718Z,992.02
2023-05-05T01:30:25.732Z,992.04
2023-05-05T01:31:25.771Z,992.02
2023-05-05T01:32:25.710Z,992.03
2023-05-05T01:33:25.674Z,991.97
2023-05-05T01:34:25.673Z,991.96
2023-05-05T01:35:25.642Z,991.97
2023-05-05T01:36:25.667Z,991.96
2023-05-05T01:37:25.618Z,991.94
2023-05-05T01:38:25.620Z,991.94
2023-05-05T01:39:25.594Z,991.95
2023-05-05T01:40:25.606Z,991.96
2023-05-05T01:41:25.602Z,991.93
2023-05-05T01:42:25.560Z,991.90
2023-05-05T01:43:25.536Z,991.90
2023-05-05T01:44:25.533Z,991.89
2023-05-05T01:45:25.543Z,991.89
2023-05-05T01:46:25.513Z,991.90
2023-05-05T01:47:25.548Z,991.86
2023-05-05T01:48:25.472Z,991.85
2023-05-05T01:49:25.467Z,991.84
2023-05-05T01:50:25.478Z,991.81
2023-05-05T01:51:25.446Z,991.84
2023-05-05T01:52:25.421Z,991.82
2023-05-05T01:53:25.402Z,991.84
2023-05-05T01:54:25.432Z,991.84
2023-05-05T01:55:25.431Z,991.86
2023-05-05T01:56:25.384Z,991.82
2023-05-05T01:57:25.394Z,991.79
2023-05-05T01:58:25.396Z,991.83
2023-05-05T01:59:25.347Z,991.81
2023-05-05T02:00:25.315Z,991.77
2023-05-05T02:01:25.326Z,991.74
2023-05-05T02:02:25.334Z,991.76
2023-05-05T02:03:25.379Z,991.76
2023-05-05T02:04:25.298Z,991.74
2023-05-05T02:05:25.245Z,991.72
2023-05-05T02:06:25.241Z,991.76
2023-05-05T02:07:25.223Z,991.74
2023-05-05T02:08:25.253Z,991.73
2023-05-05T02:09:25.245Z,991.75
2023-05-05T02:10:25.183Z,991.75
2023-05-05T02:11:25.174Z,991.75
2023-05-05T02:12:25.159Z,991.78
2023-05-05T02:13:25.201Z,991.74
2023-05-05T02:14:25.147Z,991.74
2023-05-05T02:15:25.133Z,991.72
2023-05-05T02:16:25.151Z,991.74
2023-05-05T02:17:25.171Z,991.69
2023-05-05T02:18:25.126Z,991.70
2023-05-05T02:19:25.060Z,991.72
2023-05-05T02:20:25.088Z,991.70
2023-05-05T02:21:25.155Z,991.67
2023-05-05T02:22:25.054Z,991.66
2023-05-05T02:23:25.067Z,991.70
2023-05-05T02:24:25.015Z,991.66
2023-05-05T02:25:24.979Z,991.66
2023-05-05T02:26:25.009Z,991.68
2023-05-05T02:27:25.001Z,991.68
2023-05-05T02:28:24.957Z,991.67
2023-05-05T02:29:24.946Z,991.63
2023-05-05T02:30:24.936Z,991.63
2023-05-05T02:31:24.996Z,991.66
2023-05-05T02:32:24.953Z,991.64
2023-05-05T02:33:24.916Z,991.61
2023-05-05T02:34:24.889Z,991.59
2023-05-05T02:35:24.885Z,991.63
2023-05-05T02:36:24.892Z,991.60
2023-05-05T02:37:24.859Z,991.64
2023-05-05T02:38:24.823Z,991.65
2023-05-05T02:39:24.815Z,991.63
2023-05-05T02:40:24.816Z,991.62
2023-05-05T02:41:24.821Z,991.62
2023-05-05T02:42:24.796Z,991.61
2023-05-05T02:43:24.790Z,991.62
2023-05-05T02:44:24.785Z,991.62
2023-05-05T02:45:24.760Z,991.62
2023-05-05T02:46:24.784Z,991.60
2023-05-05T02:47:24.763Z,991.60
2023-05-05T02:48:24.709Z,991.62
2023-05-05T02:49:24.684Z,991.63
2023-05-05T02:50:24.700Z,991.63
2023-05-05T02:51:24.688Z,991.59
2023-05-05T02:52:24.643Z,991.63
2023-05-05T02:53:24.631Z,991.62
2023-05-05T02:54:24.620Z,991.62
2023-05-05T02:55:24.636Z,991.60
2023-05-05T02:56:24.602Z,991.56
2023-05-05T02:57:24.762Z,991.57
2023-05-05T02:58:24.582Z,991.56
2023-05-05T02:59:24.592Z,991.51
2023-05-05T03:00:24.583Z,991.56
2023-05-05T03:01:24.579Z,991.55
2023-05-05T03:02:24.630Z,991.51
2023-05-05T03:03:24.595Z,991.53
2023-05-05T03:04:24.535Z,991.52
2023-05-05T03:05:24.467Z,991.50
2023-05-05T03:06:24.459Z,991.53
2023-05-05T03:07:24.468Z,991.53
2023-05-05T03:08:24.448Z,991.54
2023-05-05T03:09:24.467Z,991.49
2023-05-05T03:10:24.408Z,991.48
2023-05-05T03:11:24.391Z,991.47
2023-05-05T03:12:24.413Z,991.45
2023-05-05T03:13:24.413Z,991.44
2023-05-05T03:14:24.389Z,991.44
2023-05-05T03:15:24.297Z,991.42
2023-05-05T03:16:24.370Z,991.45
2023-05-05T03:17:24.328Z,991.44
2023-05-05T03:18:24.314Z,991.40
2023-05-05T03:19:24.248Z,991.36
2023-05-05T03:20:24.239Z,991.38
2023-05-05T03:21:24.282Z,991.32
2023-05-05T03:22:24.218Z,991.33
2023-05-05T03:23:24.240Z,991.33
2023-05-05T03:24:24.179Z,991.33
2023-05-05T03:25:24.175Z,991.31
2023-05-05T03:26:24.173Z,991.33
2023-05-05T03:27:24.174Z,991.40
2023-05-05T03:28:24.165Z,991.36
2023-05-05T03:29:24.119Z,991.41
2023-05-05T03:30:24.120Z,991.42
2023-05-05T03:31:24.116Z,991.44
2023-05-05T03:32:24.155Z,991.44
2023-05-05T03:33:24.061Z,991.41
2023-05-05T03:34:24.052Z,991.40
2023-05-05T03:35:24.043Z,991.34
2023-05-05T03:36:24.055Z,991.37
2023-05-05T03:37:24.064Z,991.39
2023-05-05T03:38:23.999Z,991.37
2023-05-05T03:39:23.981Z,991.36
2023-05-05T03:40:36.265Z,991.38
2023-05-05T03:41:25.020Z,991.37
2023-05-05T03:42:23.995Z,991.39
2023-05-05T03:43:23.937Z,991.40
2023-05-05T03:44:23.935Z,991.39
2023-05-05T03:45:23.910Z,991.36
2023-05-05T03:46:23.938Z,991.37
2023-05-05T03:47:23.885Z,991.43
2023-05-05T03:48:23.874Z,991.47
2023-05-05T03:49:23.868Z,991.45
2023-05-05T03:50:23.842Z,991.46
2023-05-05T03:51:23.854Z,991.45
2023-05-05T03:52:23.826Z,991.49
2023-05-05T03:53:23.803Z,991.47
2023-05-05T03:54:23.821Z,991.49
2023-05-05T03:55:23.805Z,991.52
2023-05-05T03:56:23.799Z,991.51
2023-05-05T03:57:23.753Z,991.52
2023-05-05T03:58:23.748Z,991.49
2023-05-05T03:59:23.728Z,991.54
2023-05-05T04:00:23.771Z,991.53
2023-05-05T04:01:23.715Z,991.51
2023-05-05T04:02:23.784Z,991.49
2023-05-05T04:03:23.814Z,991.47
2023-05-05T04:04:23.732Z,991.49
2023-05-05T04:05:23.716Z,991.50
2023-05-05T04:06:23.641Z,991.56
2023-05-05T04:07:23.625Z,991.58
2023-05-05T04:08:23.623Z,991.51
2023-05-05T04:09:23.628Z,991.53
2023-05-05T04:10:23.617Z,991.53
2023-05-05T04:11:23.569Z,991.57
2023-05-05T04:12:23.579Z,991.57
2023-05-05T04:13:23.545Z,991.56
2023-05-05T04:14:23.568Z,991.60
2023-05-05T04:15:23.529Z,991.53
2023-05-05T04:16:23.660Z,991.60
2023-05-05T04:17:23.491Z,991.61
2023-05-05T04:18:23.502Z,991.61
2023-05-05T04:19:23.497Z,991.60
2023-05-05T04:20:23.460Z,991.64
2023-05-05T04:21:23.441Z,991.67
2023-05-05T04:22:23.445Z,991.66
2023-05-05T04:23:23.483Z,991.66
2023-05-05T04:24:23.438Z,991.66
2023-05-05T04:25:23.397Z,991.70
2023-05-05T04:26:23.433Z,991.72
2023-05-05T04:27:23.365Z,991.75
2023-05-05T04:28:23.393Z,991.75
2023-05-05T04:29:23.345Z,991.73
2023-05-05T04:30:23.332Z,991.74
2023-05-05T04:31:23.337Z,991.73
2023-05-05T04:32:23.348Z,991.74
2023-05-05T04:33:23.312Z,991.73
2023-05-05T04:34:23.275Z,991.75
2023-05-05T04:35:23.256Z,991.75
2023-05-05T04:36:23.266Z,991.79
2023-05-05T04:37:23.258Z,991.76
2023-05-05T04:38:23.293Z,991.81
2023-05-05T04:39:23.204Z,991.80
2023-05-05T04:40:23.203Z,991.80
2023-05-05T04:41:23.189Z,991.81
2023-05-05T04:42:23.196Z,991.71
2023-05-05T04:43:23.160Z,991.80
2023-05-05T04:44:23.148Z,991.80
2023-05-05T04:45:23.148Z,991.74
2023-05-05T04:46:23.161Z,991.76
2023-05-05T04:47:23.146Z,991.75
2023-05-05T04:48:23.094Z,991.78
2023-05-05T04:49:23.084Z,991.78
2023-05-05T04:50:23.066Z,991.76
2023-05-05T04:51:23.072Z,991.75
2023-05-05T04:52:23.065Z,991.76
2023-05-05T04:53:23.035Z,991.76
2023-05-05T04:54:23.014Z,991.72
2023-05-05T04:55:23.007Z,991.80
2023-05-05T04:56:23.017Z,991.72
2023-05-05T04:57:23.008Z,991.76
2023-05-05T04:58:22.966Z,991.79
2023-05-05T04:59:22.950Z,991.77
2023-05-05T05:00:22.956Z,991.83
2023-05-05T05:01:22.993Z,991.77
2023-05-05T05:02:22.984Z,991.76
2023-05-05T05:03:22.935Z,991.77
2023-05-05T05:04:22.973Z,991.76
2023-05-05T05:05:22.896Z,991.78
2023-05-05T05:06:22.866Z,991.81
2023-05-05T05:07:22.864Z,991.78
2023-05-05T05:08:22.865Z,991.74
2023-05-05T05:09:22.960Z,991.76
2023-05-05T05:10:22.849Z,991.76
2023-05-05T05:11:22.800Z,991.77
2023-05-05T05:12:22.789Z,991.80
2023-05-05T05:13:22.848Z,991.82
2023-05-05T05:14:22.783Z,991.78
2023-05-05T05:15:22.780Z,991.82
2023-05-05T05:16:22.733Z,991.84
2023-05-05T05:17:22.761Z,991.76
2023-05-05T05:18:22.703Z,991.77
2023-05-05T05:19:22.725Z,991.77
2023-05-05T05:20:22.721Z,991.76
2023-05-05T05:21:22.676Z,991.76
2023-05-05T05:22:22.677Z,991.79
2023-05-05T05:23:22.667Z,991.81
2023-05-05T05:24:22.658Z,991.84
2023-05-05T05:25:22.663Z,991.85
2023-05-05T05:26:22.620Z,991.83
2023-05-05T05:27:22.598Z,991.84
2023-05-05T05:28:22.569Z,991.83
2023-05-05T05:29:22.602Z,991.84
2023-05-05T05:30:22.537Z,991.86
2023-05-05T05:31:22.555Z,991.78
2023-05-05T05:32:22.533Z,991.89
2023-05-05T05:33:22.566Z,991.87
2023-05-05T05:34:22.531Z,991.87
2023-05-05T05:35:22.485Z,991.87
2023-05-05T05:36:22.472Z,991.87
2023-05-05T05:37:22.462Z,991.83
2023-05-05T05:38:22.472Z,991.89
2023-05-05T05:39:22.436Z,991.87
2023-05-05T05:40:22.408Z,991.91
2023-05-05T05:41:22.413Z,991.93
2023-05-05T05:42:22.387Z,991.90
2023-05-05T05:43:22.407Z,991.90
2023-05-05T05:44:22.359Z,991.90
2023-05-05T05:45:22.361Z,991.86
2023-05-05T05:46:22.335Z,991.91
2023-05-05T05:47:22.347Z,991.93
2023-05-05T05:48:22.338Z,991.99
2023-05-05T05:49:22.308Z,991.98
2023-05-05T05:50:22.290Z,991.93
2023-05-05T05:51:22.269Z,991.98
2023-05-05T05:52:22.300Z,991.90
2023-05-05T05:53:22.253Z,991.94
2023-05-05T05:54:22.231Z,991.92
2023-05-05T05:55:22.230Z,992.00
2023-05-05T05:56:22.194Z,991.96
2023-05-05T05:57:22.256Z,991.95
2023-05-05T05:58:22.182Z,991.88
2023-05-05T05:59:22.173Z,991.96
2023-05-05T06:00:22.151Z,991.95
2023-05-05T06:01:22.177Z,991.93
2023-05-05T06:02:22.215Z,991.93
2023-05-05T06:03:22.219Z,991.94
2023-05-05T06:04:22.151Z,991.92
2023-05-05T06:05:22.118Z,991.91
2023-05-05T06:06:22.104Z,991.97
2023-05-05T06:07:22.073Z,991.98
2023-05-05T06:08:24.311Z,991.98
2023-05-05T06:09:22.033Z,992.01
2023-05-05T06:10:27.998Z,992.01
2023-05-05T06:11:23.042Z,991.99
2023-05-05T06:12:21.994Z,992.04
2023-05-05T06:13:21.999Z,992.06
2023-05-05T06:14:21.973Z,992.09
2023-05-05T06:15:21.988Z,992.09
2023-05-05T06:16:22.023Z,992.03
2023-05-05T06:17:21.941Z,992.10
2023-05-05T06:18:21.977Z,992.08
2023-05-05T06:19:21.929Z,992.06
2023-05-05T06:20:21.928Z,992.10
2023-05-05T06:21:21.905Z,992.13
2023-05-05T06:22:21.866Z,992.14
2023-05-05T06:23:21.866Z,992.11
2023-05-05T06:24:21.845Z,992.03
2023-05-05T06:25:21.861Z,992.04
2023-05-05T06:26:21.805Z,992.05
2023-05-05T06:27:21.815Z,991.98
2023-05-05T06:28:21.785Z,991.96
2023-05-05T06:29:21.808Z,991.96
2023-05-05T06:30:21.857Z,991.97
2023-05-05T06:31:22.648Z,991.96
2023-05-05T06:32:21.740Z,992.04
2023-05-05T06:33:21.740Z,991.99
2023-05-05T06:34:22.202Z,991.98
2023-05-05T06:35:21.720Z,991.92
2023-05-05T06:36:21.707Z,991.94
2023-05-05T06:37:21.676Z,991.93
2023-05-05T06:38:21.662Z,991.93
2023-05-05T06:39:21.735Z,991.85
2023-05-05T06:40:21.643Z,991.86
2023-05-05T06:41:21.626Z,991.79
2023-05-05T06:42:21.605Z,991.77
2023-05-05T06:43:21.619Z,991.81
2023-05-05T06:44:21.606Z,991.77
2023-05-05T06:45:21.572Z,991.75
2023-05-05T06:46:21.596Z,991.71
2023-05-05T06:47:21.775Z,991.76
2023-05-05T06:48:21.571Z,991.71
2023-05-05T06:49:21.519Z,991.73
2023-05-05T06:50:21.504Z,991.81
2023-05-05T06:51:21.496Z,991.85
2023-05-05T06:52:21.477Z,991.77
2023-05-05T06:53:21.488Z,991.76
2023-05-05T06:54:21.457Z,991.79
2023-05-05T06:55:21.441Z,991.78
2023-05-05T06:56:21.420Z,991.86
2023-05-05T06:57:21.441Z,991.82
2023-05-05T06:58:21.416Z,991.87
2023-05-05T06:59:21.394Z,991.87
2023-05-05T07:00:21.374Z,991.92
2023-05-05T07:01:21.398Z,991.93
2023-05-05T07:02:21.384Z,991.94
2023-05-05T07:03:21.455Z,991.99
2023-05-05T07:04:21.313Z,991.99
2023-05-05T07:05:21.344Z,992.01
2023-05-05T07:06:21.290Z,992.02
2023-05-05T07:07:21.314Z,992.02
2023-05-05T07:08:21.270Z,992.04
2023-05-05T07:09:21.258Z,992.04
2023-05-05T07:10:21.239Z,991.99
2023-05-05T07:11:21.264Z,992.03
2023-05-05T07:12:21.286Z,992.00
2023-05-05T07:13:21.206Z,992.02
2023-05-05T07:14:22.762Z,991.99
2023-05-05T07:15:28.597Z,992.01
2023-05-05T07:16:22.220Z,992.03
2023-05-05T07:17:21.174Z,992.06
2023-05-05T07:18:21.223Z,992.03
2023-05-05T07:19:21.306Z,992.05
2023-05-05T07:20:21.108Z,992.08
2023-05-05T07:21:21.137Z,992.14
2023-05-05T07:22:21.261Z,992.15
2023-05-05T07:23:21.079Z,992.18
2023-05-05T07:24:21.068Z,992.23
2023-05-05T07:25:21.321Z,992.23
2023-05-05T07:26:22.058Z,992.31
2023-05-05T07:27:21.024Z,992.29
2023-05-05T07:28:21.005Z,992.35
2023-05-05T07:29:21.100Z,992.33
2023-05-05T07:30:21.330Z,992.29
2023-05-05T07:31:20.980Z,992.34
2023-05-05T07:32:21.055Z,992.36
2023-05-05T07:33:20.953Z,992.37
2023-05-05T07:34:20.946Z,992.37
2023-05-05T07:35:20.956Z,992.34
2023-05-05T07:36:20.892Z,992.36
2023-05-05T07:37:20.909Z,992.27
2023-05-05T07:38:20.876Z,992.16
2023-05-05T07:39:20.904Z,992.18
2023-05-05T07:40:20.883Z,992.14
2023-05-05T07:41:20.949Z,992.10
2023-05-05T07:42:20.835Z,992.05
2023-05-05T07:43:20.816Z,992.01
2023-05-05T07:44:21.512Z,991.99
2023-05-05T07:45:20.829Z,992.03
2023-05-05T07:46:20.810Z,992.15
2023-05-05T07:47:20.783Z,992.24
2023-05-05T07:48:20.858Z,992.25
2023-05-05T07:49:20.882Z,992.22
2023-05-05T07:50:20.745Z,992.24
2023-05-05T07:51:21.485Z,992.27
2023-05-05T07:52:30.087Z,992.22
2023-05-05T07:53:21.731Z,992.23
2023-05-05T07:54:20.773Z,992.23
2023-05-05T07:55:20.656Z,992.27
2023-05-05T07:56:21.803Z,992.27
2023-05-05T07:57:20.634Z,992.23
2023-05-05T07:58:20.651Z,992.24
2023-05-05T07:59:20.617Z,992.31
2023-05-05T08:00:20.654Z,992.30
2023-05-05T08:01:20.584Z,992.31
2023-05-05T08:02:20.677Z,992.36
2023-05-05T08:03:20.738Z,992.34
2023-05-05T08:04:21.802Z,992.33
2023-05-05T08:05:21.524Z,992.31
2023-05-05T08:06:20.852Z,992.28
2023-05-05T08:07:20.935Z,992.31
2023-05-05T08:08:24.926Z,992.24
2023-05-05T08:09:21.381Z,992.19
2023-05-05T08:10:20.744Z,992.19
2023-05-05T08:11:20.637Z,992.24
2023-05-05T08:12:21.322Z,992.16
2023-05-05T08:13:23.885Z,992.16
2023-05-05T08:14:24.212Z,992.18
2023-05-05T08:15:20.640Z,992.22
2023-05-05T08:16:20.686Z,992.21
2023-05-05T08:17:21.859Z,992.19
2023-05-05T08:18:20.534Z,992.26
2023-05-05T08:19:28.906Z,992.27
2023-05-05T08:20:21.510Z,992.35
2023-05-05T08:21:21.587Z,992.35
2023-05-05T08:22:20.646Z,992.36
2023-05-05T08:23:24.211Z,992.36
2023-05-05T08:24:20.499Z,992.38
2023-05-05T08:25:25.801Z,992.37
2023-05-05T08:26:23.682Z,992.38
2023-05-05T08:27:20.792Z,992.39
2023-05-05T08:28:21.106Z,992.43
2023-05-05T08:29:20.466Z,992.39
2023-05-05T08:30:21.778Z,992.36
2023-05-05T08:31:20.513Z,992.41
2023-05-05T08:32:20.749Z,992.40
2023-05-05T08:33:21.237Z,992.41
2023-05-05T08:34:20.385Z,992.41
2023-05-05T08:35:20.419Z,992.42
2023-05-05T08:36:23.963Z,992.41
2023-05-05T08:37:20.368Z,992.43
2023-05-05T08:38:20.283Z,992.40
2023-05-05T08:39:20.360Z,992.41
2023-05-05T08:40:20.985Z,992.41
2023-05-05T08:41:20.091Z,992.40
2023-05-05T08:42:29.290Z,992.40
2023-05-05T08:43:21.027Z,992.42
2023-05-05T08:44:20.025Z,992.41
2023-05-05T08:45:20.044Z,992.44
2023-05-05T08:46:20.030Z,992.42
2023-05-05T08:47:20.534Z,992.45
2023-05-05T08:48:19.967Z,992.44
2023-05-05T08:49:20.068Z,992.48
2023-05-05T08:50:19.964Z,992.51
2023-05-05T08:51:19.948Z,992.49
2023-05-05T08:52:19.966Z,992.53
2023-05-05T08:53:19.937Z,992.49
2023-05-05T08:54:19.921Z,992.47
2023-05-05T08:55:19.891Z,992.50
2023-05-05T08:56:20.081Z,992.51
2023-05-05T08:57:19.911Z,992.48
2023-05-05T08:58:19.933Z,992.49
2023-05-05T08:59:20.404Z,992.51
2023-05-05T09:00:19.972Z,992.56
2023-05-05T09:01:19.859Z,992.54
2023-05-05T09:02:19.974Z,992.54
2023-05-05T09:03:19.940Z,992.55
2023-05-05T09:04:19.795Z,992.57
2023-05-05T09:05:19.748Z,992.55
2023-05-05T09:06:19.880Z,992.49
2023-05-05T09:07:19.847Z,992.54
2023-05-05T09:08:19.887Z,992.52
2023-05-05T09:09:19.716Z,992.50
2023-05-05T09:10:19.730Z,992.47
2023-05-05T09:11:19.860Z,992.48
2023-05-05T09:12:20.406Z,992.49
2023-05-05T09:13:20.259Z,992.43
2023-05-05T09:14:19.803Z,992.50
2023-05-05T09:15:19.888Z,992.52
2023-05-05T09:16:19.688Z,992.49
2023-05-05T09:17:19.616Z,992.51
2023-05-05T09:18:19.910Z,992.53
2023-05-05T09:19:19.559Z,992.53
2023-05-05T09:20:19.593Z,992.54
2023-05-05T09:21:19.539Z,992.52
2023-05-05T09:22:19.636Z,992.55
2023-05-05T09:23:19.514Z,992.54
2023-05-05T09:24:19.506Z,992.50
2023-05-05T09:25:19.480Z,992.56
2023-05-05T09:26:19.481Z,992.53
2023-05-05T09:27:19.496Z,992.48
2023-05-05T09:28:19.453Z,992.49
2023-05-05T09:29:19.426Z,992.55
2023-05-05T09:30:19.419Z,992.53
2023-05-05T09:31:19.458Z,992.51
2023-05-05T09:32:19.428Z,992.58
2023-05-05T09:33:19.393Z,992.57
2023-05-05T09:34:19.465Z,992.56
2023-05-05T09:35:19.365Z,992.51
2023-05-05T09:36:19.423Z,992.51
2023-05-05T09:37:19.331Z,992.51
2023-05-05T09:38:19.320Z,992.55
2023-05-05T09:39:19.320Z,992.51
2023-05-05T09:40:20.193Z,992.55
2023-05-05T09:41:19.301Z,992.52
2023-05-05T09:42:20.076Z,992.49
2023-05-05T09:43:19.995Z,992.52
2023-05-05T09:44:19.481Z,992.53
2023-05-05T09:45:19.336Z,992.50
2023-05-05T09:46:19.426Z,992.47
2023-05-05T09:47:29.434Z,992.52
2023-05-05T09:48:20.240Z,992.42
2023-05-05T09:49:19.777Z,992.43
2023-05-05T09:50:19.335Z,992.41
2023-05-05T09:51:19.147Z,992.40
2023-05-05T09:52:19.142Z,992.40
2023-05-05T09:53:19.125Z,992.42
2023-05-05T09:54:19.243Z,992.37
2023-05-05T09:55:19.356Z,992.37
2023-05-05T09:56:19.200Z,992.37
2023-05-05T09:57:19.104Z,992.37
2023-05-05T09:58:19.263Z,992.35
2023-05-05T09:59:19.471Z,992.35
2023-05-05T10:00:19.243Z,992.40
2023-05-05T10:01:19.038Z,992.36
2023-05-05T10:02:19.176Z,992.35
2023-05-05T10:03:19.000Z,992.29
2023-05-05T10:04:19.963Z,992.33
2023-05-05T10:05:19.259Z,992.32
2023-05-05T10:06:19.004Z,992.34
2023-05-05T10:07:19.051Z,992.27
2023-05-05T10:08:19.026Z,992.29
2023-05-05T10:09:19.172Z,992.33
2023-05-05T10:10:19.025Z,992.31
2023-05-05T10:11:18.975Z,992.32
2023-05-05T10:12:18.879Z,992.31
2023-05-05T10:13:19.005Z,992.32
2023-05-05T10:14:19.470Z,992.24
2023-05-05T10:15:18.841Z,992.26
2023-05-05T10:16:18.889Z,992.22
2023-05-05T10:17:18.918Z,992.28
2023-05-05T10:18:18.848Z,992.24
2023-05-05T10:19:18.957Z,992.15
2023-05-05T10:20:18.818Z,992.15
2023-05-05T10:21:18.771Z,992.15
2023-05-05T10:22:18.752Z,992.18
2023-05-05T10:23:18.933Z,992.18
2023-05-05T10:24:18.723Z,992.19
2023-05-05T10:25:19.334Z,992.18
2023-05-05T10:26:18.758Z,992.16
2023-05-05T10:27:18.791Z,992.13
2023-05-05T10:28:19.515Z,992.14
2023-05-05T10:29:18.674Z,992.16
2023-05-05T10:30:18.828Z,992.15
2023-05-05T10:31:25.813Z,992.14
2023-05-05T10:32:47.306Z,992.09
2023-05-05T10:33:31.588Z,992.08
2023-05-05T10:34:19.623Z,992.09
2023-05-05T10:35:18.658Z,992.08
2023-05-05T10:36:18.968Z,992.06
2023-05-05T10:37:18.576Z,992.07
2023-05-05T10:38:18.566Z,992.06
2023-05-05T10:39:18.586Z,992.02
2023-05-05T10:40:18.522Z,991.95
2023-05-05T10:41:18.535Z,991.95
2023-05-05T10:42:19.494Z,991.92
2023-05-05T10:43:18.599Z,991.88
2023-05-05T10:44:19.287Z,991.92
2023-05-05T10:45:18.582Z,991.90
2023-05-05T10:46:18.494Z,991.86
2023-05-05T10:47:18.532Z,991.87
2023-05-05T10:48:18.606Z,991.87
2023-05-05T10:49:18.614Z,991.87
2023-05-05T10:50:18.397Z,991.85
2023-05-05T10:51:27.500Z,991.82
2023-05-05T10:52:19.507Z,991.80
2023-05-05T10:53:18.430Z,991.76
2023-05-05T10:54:18.431Z,991.70
2023-05-05T10:55:18.344Z,991.69
2023-05-05T10:56:18.565Z,991.72
2023-05-05T10:57:19.094Z,991.72
2023-05-05T10:58:18.409Z,991.71
2023-05-05T10:59:18.853Z,991.68
2023-05-05T11:00:18.440Z,991.66
2023-05-05T11:01:18.275Z,991.65
2023-05-05T11:02:18.270Z,991.65
2023-05-05T11:03:18.494Z,991.70
2023-05-05T11:04:18.232Z,991.70
2023-05-05T11:05:19.122Z,991.65
2023-05-05T11:06:18.185Z,991.65
2023-05-05T11:07:18.346Z,991.65
2023-05-05T11:08:18.149Z,991.67
2023-05-05T11:09:19.108Z,991.61
2023-05-05T11:10:18.577Z,991.64
2023-05-05T11:11:18.322Z,991.65
2023-05-05T11:12:18.271Z,991.65
2023-05-05T11:13:18.387Z,991.66
2023-05-05T11:14:18.449Z,991.60
2023-05-05T11:15:18.597Z,991.63
2023-05-05T11:16:18.594Z,991.61
2023-05-05T11:17:18.035Z,991.67
2023-05-05T11:18:18.024Z,991.66
2023-05-05T11:19:18.024Z,991.65
2023-05-05T11:20:17.996Z,991.67
2023-05-05T11:21:17.981Z,991.64
2023-05-05T11:22:17.973Z,991.65
2023-05-05T11:23:17.976Z,991.61
2023-05-05T11:24:17.968Z,991.65
2023-05-05T11:25:17.930Z,991.66
2023-05-05T11:26:17.925Z,991.62
2023-05-05T11:27:18.157Z,991.64
2023-05-05T11:28:18.746Z,991.62
2023-05-05T11:29:17.864Z,991.64
2023-05-05T11:30:17.990Z,991.67
2023-05-05T11:31:18.709Z,991.64
2023-05-05T11:32:17.956Z,991.61
2023-05-05T11:33:17.970Z,991.59
2023-05-05T11:34:17.986Z,991.62
2023-05-05T11:35:17.784Z,991.64
2023-05-05T11:36:17.811Z,991.64
2023-05-05T11:37:17.806Z,991.65
2023-05-05T11:38:17.781Z,991.64
2023-05-05T11:39:18.015Z,991.65
2023-05-05T11:40:17.733Z,991.66
2023-05-05T11:41:17.803Z,991.64
2023-05-05T11:42:17.876Z,991.62
2023-05-05T11:43:17.758Z,991.67
2023-05-05T11:44:18.613Z,991.67
2023-05-05T11:45:17.873Z,991.66
2023-05-05T11:46:17.661Z,991.63
2023-05-05T11:47:17.746Z,991.61
2023-05-05T11:48:18.483Z,991.64
2023-05-05T11:49:17.754Z,991.63
2023-05-05T11:50:17.802Z,991.63
2023-05-05T11:51:17.612Z,991.56
2023-05-05T11:52:17.600Z,991.57
2023-05-05T11:53:17.546Z,991.57
2023-05-05T11:54:17.533Z,991.56
2023-05-05T11:55:17.511Z,991.50
2023-05-05T11:56:17.607Z,991.39
2023-05-05T11:57:17.496Z,991.42
2023-05-05T11:58:17.485Z,991.40
2023-05-05T11:59:17.473Z,991.41
2023-05-05T12:00:17.454Z,991.38
2023-05-05T12:01:17.488Z,991.38
2023-05-05T12:02:17.482Z,991.35
2023-05-05T12:03:17.520Z,991.32
2023-05-05T12:04:17.534Z,991.38
2023-05-05T12:05:17.414Z,991.37
2023-05-05T12:06:17.372Z,991.33
2023-05-05T12:07:17.459Z,991.30
2023-05-05T12:08:17.372Z,991.30
2023-05-05T12:09:17.339Z,991.30
2023-05-05T12:10:17.358Z,991.31
2023-05-05T12:11:17.308Z,991.27
2023-05-05T12:12:17.303Z,991.32
2023-05-05T12:13:17.306Z,991.29
2023-05-05T12:14:17.288Z,991.34
2023-05-05T12:15:17.282Z,991.29
2023-05-05T12:16:17.549Z,991.30
2023-05-05T12:17:17.551Z,991.26
2023-05-05T12:18:17.256Z,991.22
2023-05-05T12:19:17.298Z,991.20
2023-05-05T12:20:17.189Z,991.19
2023-05-05T12:21:17.229Z,991.23
2023-05-05T12:22:17.192Z,991.23
2023-05-05T12:23:17.173Z,991.24
2023-05-05T12:24:17.183Z,991.24
2023-05-05T12:25:17.119Z,991.20
2023-05-05T12:26:17.117Z,991.18
2023-05-05T12:27:17.100Z,991.18
2023-05-05T12:28:17.162Z,991.11